Kirkwood, Illinois
Current Conditions -  °F | °C
As of 5:55 PM on Friday 28 Nov 2014 (Local Time) from KGBG Reporting Station
Clear Clear  
Wind Chill: 28°   Ceiling: Unl
Heat Index: 34°   Visibility: 10mi
Dew Point: 32°   Wind: 7mph
Humidity: 90%   Direction: 120°ESE
Pressure: 29.88"   Gusts: NA
Location:  40.87°N, 90.75°W
Report Text: KGBG 282355Z AUTO 12006KT 10SM CLR 01/00 A2988 RMK AO2 T00131002 10026 21007
Loading
Personal Weather Stations






























Interactive Weather Map New forecast layout! Learn more

10-Day Weather Forecast

Advertisements
Track Severe Weather on mobile